Time;durP1;ratioP1;P1;durP2;ratioP2;P2;SDS_P1;SDS_P2;PMS_P1;PMS_P2;Temp;Humidity;BMP_temperature;BMP_pressure;BME280_temperature;BME280_humidity;BME280_pressure;Samples;Min_cycle;Max_cycle;Signal;HPM_P1;HPM_P2
2022/05/10 00:01:49;;;;;;;9.03;3.93;;;;;;;;;;6126257;23;20179;-87
2022/05/10 00:04:17;;;;;;;3.73;2.37;;;;;;;;;;6126180;23;20204;-87
2022/05/10 00:06:48;;;;;;;7.10;4.27;;;;;;;;;;6126059;23;20225;-87
2022/05/10 00:09:17;;;;;;;6.23;4.13;;;;;;;;;;6127328;23;20178;-87
2022/05/10 00:11:45;;;;;;;6.53;3.70;;;;;;;;;;6125597;23;20204;-88
2022/05/10 00:14:14;;;;;;;7.13;4.27;;;;;;;;;;6125538;23;20189;-87
2022/05/10 00:16:44;;;;;;;11.30;4.97;;;;;;;;;;6127795;23;20182;-87
2022/05/10 00:19:14;;;;;;;7.00;3.70;;;;;;;;;;6125672;23;20245;-87
2022/05/10 00:21:43;;;;;;;4.87;3.47;;;;;;;;;;6149173;23;20209;-87
2022/05/10 00:24:11;;;;;;;7.50;4.67;;;;;;;;;;6155923;23;20229;-87
2022/05/10 00:26:40;;;;;;;11.37;4.00;;;;;;;;;;6130851;23;20185;-88
2022/05/10 00:29:09;;;;;;;5.00;3.83;;;;;;;;;;6131074;23;20189;-88
2022/05/10 00:31:38;;;;;;;4.57;2.83;;;;;;;;;;6155077;23;20202;-87
2022/05/10 00:34:08;;;;;;;10.83;4.90;;;;;;;;;;6131204;23;20232;-87
2022/05/10 00:36:36;;;;;;;3.87;2.90;;;;;;;;;;6155954;23;20177;-87
2022/05/10 00:39:05;;;;;;;9.37;5.43;;;;;;;;;;6130218;23;20209;-88
2022/05/10 00:41:36;;;;;;;3.70;2.13;;;;;;;;;;6155266;23;20180;-87
2022/05/10 00:44:09;;;;;;;6.30;5.17;;;;;;;;;;6156525;23;20177;-88
2022/05/10 00:46:38;;;;;;;7.17;4.30;;;;;;;;;;6130633;23;20181;-87
2022/05/10 00:49:11;;;;;;;9.00;5.03;;;;;;;;;;6156591;23;20177;-87
2022/05/10 00:51:43;;;;;;;9.60;4.27;;;;;;;;;;6130940;23;20206;-88
2022/05/10 00:54:19;;;;;;;6.47;3.43;;;;;;;;;;6130213;23;20179;-87
2022/05/10 00:56:50;;;;;;;9.73;2.63;;;;;;;;;;6155750;23;20188;-87
2022/05/10 00:59:22;;;;;;;11.37;5.53;;;;;;;;;;6130221;23;20177;-87
2022/05/10 01:01:53;;;;;;;6.60;5.00;;;;;;;;;;6130289;23;20176;-87
2022/05/10 01:04:26;;;;;;;4.73;4.10;;;;;;;;;;6130269;23;20185;-87
2022/05/10 01:06:56;;;;;;;1.60;1.50;;;;;;;;;;6155061;23;20206;-87
2022/05/10 01:09:28;;;;;;;3.83;1.50;;;;;;;;;;6156277;23;20177;-87
2022/05/10 01:12:00;;;;;;;11.07;3.63;;;;;;;;;;6156283;23;20202;-87
2022/05/10 01:14:32;;;;;;;6.47;4.13;;;;;;;;;;6155851;23;20248;-87
2022/05/10 01:17:00;;;;;;;10.27;4.60;;;;;;;;;;6130425;23;20178;-87
2022/05/10 01:19:30;;;;;;;6.80;4.80;;;;;;;;;;6154558;23;20236;-87
2022/05/10 01:22:07;;;;;;;4.23;2.20;;;;;;;;;;6129296;23;20203;-86
2022/05/10 01:24:44;;;;;;;5.40;3.37;;;;;;;;;;6156174;23;20208;-85
2022/05/10 01:27:19;;;;;;;8.43;4.03;;;;;;;;;;6130233;23;20186;-86
2022/05/10 01:29:51;;;;;;;10.07;6.63;;;;;;;;;;6129847;23;20207;-87
2022/05/10 01:35:09;;;;;;;10.23;7.33;;;;;;;;;;6129468;23;20190;-88
2022/05/10 01:37:39;;;;;;;12.43;8.13;;;;;;;;;;6130176;23;20262;-87
2022/05/10 01:40:13;;;;;;;9.90;6.03;;;;;;;;;;6155697;23;20255;-87
2022/05/10 01:42:44;;;;;;;11.07;7.27;;;;;;;;;;6130627;23;20174;-87
2022/05/10 01:45:17;;;;;;;8.90;6.17;;;;;;;;;;6130365;23;20200;-87
2022/05/10 01:47:47;;;;;;;6.07;4.90;;;;;;;;;;6129914;23;20179;-87
2022/05/10 01:50:19;;;;;;;4.80;2.87;;;;;;;;;;6155938;23;20182;-87
2022/05/10 01:52:52;;;;;;;8.80;6.27;;;;;;;;;;6129581;23;20209;-87
2022/05/10 01:55:26;;;;;;;11.27;7.33;;;;;;;;;;6154705;23;20183;-87
2022/05/10 01:57:55;;;;;;;8.67;7.30;;;;;;;;;;6154616;23;20182;-87
2022/05/10 02:03:12;;;;;;;12.50;6.30;;;;;;;;;;6098013;23;20210;-84
2022/05/10 02:05:44;;;;;;;8.20;6.10;;;;;;;;;;6130359;23;20204;-85
2022/05/10 02:08:15;;;;;;;9.73;6.17;;;;;;;;;;6157161;23;20183;-84
2022/05/10 02:10:45;;;;;;;10.67;6.33;;;;;;;;;;6155926;23;20182;-85
2022/05/10 02:13:16;;;;;;;9.63;7.00;;;;;;;;;;6131022;23;20208;-85
2022/05/10 02:15:47;;;;;;;12.20;8.03;;;;;;;;;;6156278;23;20288;-85
2022/05/10 02:18:20;;;;;;;11.17;6.13;;;;;;;;;;6130516;23;20173;-85
2022/05/10 02:20:51;;;;;;;7.40;4.97;;;;;;;;;;6155654;23;20235;-85
2022/05/10 02:23:22;;;;;;;12.13;6.77;;;;;;;;;;6130286;23;20178;-86
2022/05/10 02:25:54;;;;;;;13.67;8.33;;;;;;;;;;6130521;23;20181;-86
2022/05/10 02:28:35;;;;;;;10.80;8.03;;;;;;;;;;6157971;23;20177;-86
2022/05/10 02:31:06;;;;;;;10.43;7.17;;;;;;;;;;6158422;23;20225;-86
2022/05/10 02:33:36;;;;;;;9.97;6.73;;;;;;;;;;6158004;23;20214;-86
2022/05/10 02:36:07;;;;;;;17.67;6.97;;;;;;;;;;6156732;23;20186;-86
2022/05/10 02:38:37;;;;;;;13.30;6.30;;;;;;;;;;6132040;23;20177;-86
2022/05/10 02:41:09;;;;;;;6.40;5.70;;;;;;;;;;6132278;23;20210;-86
2022/05/10 02:43:54;;;;;;;8.70;7.07;;;;;;;;;;6130105;23;20176;-86
2022/05/10 02:46:24;;;;;;;13.27;7.87;;;;;;;;;;6157695;23;20173;-86
2022/05/10 02:48:54;;;;;;;8.33;7.07;;;;;;;;;;6131973;23;20188;-86
2022/05/10 02:51:22;;;;;;;14.83;5.67;;;;;;;;;;6131593;23;20182;-86
2022/05/10 02:53:51;;;;;;;11.37;8.20;;;;;;;;;;6157620;23;20191;-86
2022/05/10 02:56:21;;;;;;;12.47;6.67;;;;;;;;;;6132330;23;20158;-86
2022/05/10 02:58:51;;;;;;;9.57;5.27;;;;;;;;;;6158550;23;20171;-86
2022/05/10 03:01:22;;;;;;;14.07;7.63;;;;;;;;;;6132607;23;20184;-86
2022/05/10 03:03:50;;;;;;;13.13;8.50;;;;;;;;;;6126833;23;20214;-86
2022/05/10 03:06:22;;;;;;;10.90;7.03;;;;;;;;;;6126917;23;20180;-85
2022/05/10 03:08:51;;;;;;;11.87;7.50;;;;;;;;;;6102296;23;20178;-85
2022/05/10 03:11:20;;;;;;;12.30;6.83;;;;;;;;;;6102635;23;20190;-85
2022/05/10 03:17:55;;;;;;;14.50;7.47;;;;;;;;;;5906251;24;20189;-85
2022/05/10 03:20:24;;;;;;;7.07;5.83;;;;;;;;;;6023134;23;20265;-85
2022/05/10 03:22:54;;;;;;;10.17;7.37;;;;;;;;;;6039206;23;20184;-85
2022/05/10 03:25:44;;;;;;;8.33;7.50;;;;;;;;;;6039259;23;20190;-85
2022/05/10 03:32:05;;;;;;;10.43;6.23;;;;;;;;;;5911247;24;20195;-85
2022/05/10 03:37:20;;;;;;;9.97;6.80;;;;;;;;;;6038589;23;20181;-85
2022/05/10 03:43:59;;;;;;;9.23;8.07;;;;;;;;;;5981547;24;20183;-85
2022/05/10 03:46:30;;;;;;;13.50;8.00;;;;;;;;;;5963341;24;20186;-84
2022/05/10 03:48:59;;;;;;;9.90;6.47;;;;;;;;;;5982068;24;20273;-85
2022/05/10 03:51:27;;;;;;;16.20;10.27;;;;;;;;;;5960322;23;20182;-84
2022/05/10 03:53:56;;;;;;;10.50;7.40;;;;;;;;;;6028670;23;20207;-84
2022/05/10 03:56:44;;;;;;;11.40;8.97;;;;;;;;;;6126798;23;20187;-85
2022/05/10 03:59:12;;;;;;;7.93;5.80;;;;;;;;;;6101516;23;20179;-85
2022/05/10 04:01:42;;;;;;;7.97;6.70;;;;;;;;;;6102307;23;20187;-85
2022/05/10 04:04:46;;;;;;;12.93;9.23;;;;;;;;;;6101805;23;20305;-85
2022/05/10 04:07:18;;;;;;;12.37;7.90;;;;;;;;;;6101536;23;20266;-84
2022/05/10 04:10:09;;;;;;;13.03;8.33;;;;;;;;;;6102233;23;20187;-84
2022/05/10 04:12:38;;;;;;;7.87;5.07;;;;;;;;;;6101719;23;20176;-83
2022/05/10 04:15:07;;;;;;;10.33;7.57;;;;;;;;;;6101480;23;20191;-84
2022/05/10 04:17:37;;;;;;;12.27;7.10;;;;;;;;;;6101601;23;20179;-84
2022/05/10 04:20:08;;;;;;;5.97;5.13;;;;;;;;;;6128429;23;20194;-85
2022/05/10 04:23:17;;;;;;;13.07;8.77;;;;;;;;;;6094833;23;20186;-84
2022/05/10 04:26:06;;;;;;;10.23;9.00;;;;;;;;;;6101890;23;20234;-85
2022/05/10 04:29:05;;;;;;;12.77;9.93;;;;;;;;;;6101675;23;20184;-85
2022/05/10 04:31:33;;;;;;;11.57;6.93;;;;;;;;;;6060191;23;20233;-85
2022/05/10 04:34:03;;;;;;;10.83;8.77;;;;;;;;;;6101704;23;20191;-84
2022/05/10 04:36:31;;;;;;;15.77;8.90;;;;;;;;;;6125830;23;20208;-85
2022/05/10 04:39:00;;;;;;;12.60;8.27;;;;;;;;;;6102059;23;20226;-85
2022/05/10 04:41:28;;;;;;;11.87;8.80;;;;;;;;;;6101709;23;20184;-85
2022/05/10 04:43:57;;;;;;;14.13;10.80;;;;;;;;;;6101670;23;20258;-84
2022/05/10 04:49:59;;;;;;;12.00;6.53;;;;;;;;;;5981545;23;20189;-85
2022/05/10 04:52:27;;;;;;;10.53;7.63;;;;;;;;;;5958627;24;20278;-85
2022/05/10 04:54:56;;;;;;;11.57;9.37;;;;;;;;;;5981619;24;20242;-85
2022/05/10 04:57:24;;;;;;;4.40;4.00;;;;;;;;;;5958928;24;20190;-85
2022/05/10 04:59:53;;;;;;;14.20;9.33;;;;;;;;;;5981790;24;20187;-85
2022/05/10 05:02:53;;;;;;;10.93;9.90;;;;;;;;;;5981810;24;20179;-85
2022/05/10 05:05:23;;;;;;;7.97;5.67;;;;;;;;;;5966255;24;20208;-85
2022/05/10 05:07:51;;;;;;;20.93;10.03;;;;;;;;;;5958471;24;20282;-85
2022/05/10 05:10:20;;;;;;;9.97;6.37;;;;;;;;;;5958544;24;20187;-85
2022/05/10 05:12:48;;;;;;;10.00;6.93;;;;;;;;;;5981465;23;20291;-85
2022/05/10 05:15:37;;;;;;;11.60;8.47;;;;;;;;;;5981848;23;20211;-85
2022/05/10 05:18:07;;;;;;;13.30;10.87;;;;;;;;;;5981584;24;20287;-85
2022/05/10 05:20:39;;;;;;;12.70;10.83;;;;;;;;;;5982000;24;20251;-85
2022/05/10 05:23:21;;;;;;;17.27;9.17;;;;;;;;;;5958509;24;20226;-85
2022/05/10 05:25:49;;;;;;;13.17;11.53;;;;;;;;;;6050999;23;20258;-85
2022/05/10 05:28:17;;;;;;;11.33;8.47;;;;;;;;;;6101762;23;20177;-85
2022/05/10 05:30:46;;;;;;;11.03;9.73;;;;;;;;;;6101745;23;20180;-85
2022/05/10 05:33:14;;;;;;;12.00;10.70;;;;;;;;;;6101607;23;20195;-86
2022/05/10 05:35:48;;;;;;;6.23;5.47;;;;;;;;;;6127532;23;20193;-85
2022/05/10 05:38:50;;;;;;;13.40;12.10;;;;;;;;;;6100334;23;20194;-85
2022/05/10 05:41:25;;;;;;;14.07;9.47;;;;;;;;;;6124189;23;20206;-84
2022/05/10 05:43:56;;;;;;;10.17;7.57;;;;;;;;;;6101520;23;20219;-85
2022/05/10 05:46:28;;;;;;;15.23;12.07;;;;;;;;;;6101965;23;20187;-85
2022/05/10 05:48:59;;;;;;;13.57;9.80;;;;;;;;;;6101315;23;20280;-85
2022/05/10 05:51:32;;;;;;;12.33;9.47;;;;;;;;;;6101778;23;20186;-84
2022/05/10 05:54:01;;;;;;;15.87;10.80;;;;;;;;;;6101507;23;20184;-83
2022/05/10 05:56:58;;;;;;;18.67;12.40;;;;;;;;;;6101320;23;20183;-85
2022/05/10 05:59:38;;;;;;;18.43;10.13;;;;;;;;;;6101574;23;20275;-85
2022/05/10 06:02:12;;;;;;;11.03;9.57;;;;;;;;;;6101449;23;20179;-85
2022/05/10 06:04:53;;;;;;;12.43;9.80;;;;;;;;;;6127581;23;20199;-86
2022/05/10 06:07:32;;;;;;;9.63;7.67;;;;;;;;;;6101482;23;20176;-86
2022/05/10 06:13:28;;;;;;;14.07;10.33;;;;;;;;;;6100052;23;20186;-85
2022/05/10 06:20:33;;;;;;;15.57;9.73;;;;;;;;;;5897965;24;20177;-84
2022/05/10 06:31:30;;;;;;;9.63;7.13;;;;;;;;;;5927623;23;20174;-85
2022/05/10 07:03:15;;;;;;;11.17;6.67;;;;;;;;;;5925512;24;20158;-85
2022/05/10 07:06:06;;;;;;;15.93;10.50;;;;;;;;;;5912695;24;20190;-85
2022/05/10 07:08:38;;;;;;;14.00;9.43;;;;;;;;;;6030780;23;20242;-84
2022/05/10 08:30:29;;;;;;;1.70;1.40;;;;;;;;;;6153443;23;20215;-86
2022/05/10 08:33:24;;;;;;;6.50;4.67;;;;;;;;;;6094776;23;20295;-85
2022/05/10 08:36:05;;;;;;;5.30;3.60;;;;;;;;;;6153033;23;20216;-85
2022/05/10 08:42:08;;;;;;;1.53;1.43;;;;;;;;;;6152315;23;20207;-86
2022/05/10 08:45:11;;;;;;;2.67;2.47;;;;;;;;;;6127864;23;20205;-87
2022/05/10 08:48:27;;;;;;;1.93;1.83;;;;;;;;;;6108261;23;20190;-87
2022/05/10 08:54:48;;;;;;;11.67;4.23;;;;;;;;;;6129478;23;20231;-87
2022/05/10 09:01:30;;;;;;;8.67;3.13;;;;;;;;;;6040247;23;20266;-86
2022/05/10 09:08:48;;;;;;;9.67;4.50;;;;;;;;;;5922828;24;20198;-86
2022/05/10 09:11:32;;;;;;;3.67;3.20;;;;;;;;;;5947980;24;20199;-84
2022/05/10 09:27:38;;;;;;;8.67;5.10;;;;;;;;;;5900373;24;20187;-86
2022/05/10 09:30:43;;;;;;;9.17;4.33;;;;;;;;;;5948253;24;20220;-86
2022/05/10 09:37:07;;;;;;;5.20;3.63;;;;;;;;;;6033615;23;20215;-86
2022/05/10 09:40:26;;;;;;;5.83;3.77;;;;;;;;;;6010567;23;20222;-87
2022/05/10 09:43:39;;;;;;;11.00;6.60;;;;;;;;;;6124258;23;20216;-87
2022/05/10 09:46:37;;;;;;;2.27;2.07;;;;;;;;;;6126373;23;20181;-87
2022/05/10 09:53:25;;;;;;;3.00;2.53;;;;;;;;;;6006083;23;20191;-88
2022/05/10 09:59:41;;;;;;;5.77;3.80;;;;;;;;;;6127068;23;20185;-87
2022/05/10 10:06:24;;;;;;;7.73;3.47;;;;;;;;;;6126353;23;20185;-86
2022/05/10 10:09:17;;;;;;;3.97;2.30;;;;;;;;;;6125923;23;20231;-86
2022/05/10 10:12:29;;;;;;;6.13;3.23;;;;;;;;;;6126112;23;20185;-87
2022/05/10 10:15:45;;;;;;;6.80;3.07;;;;;;;;;;6148740;23;20183;-87
2022/05/10 10:18:37;;;;;;;4.67;3.67;;;;;;;;;;6126806;23;20176;-87
2022/05/10 10:22:04;;;;;;;3.10;2.70;;;;;;;;;;6125887;23;20191;-88
2022/05/10 10:24:51;;;;;;;5.40;3.33;;;;;;;;;;6126539;23;20188;-86
2022/05/10 10:33:59;;;;;;;3.13;2.13;;;;;;;;;;6152241;23;20188;-85
2022/05/10 10:40:36;;;;;;;14.43;2.50;;;;;;;;;;6094707;23;20240;-87
2022/05/10 10:55:08;;;;;;;2.83;1.63;;;;;;;;;;6026453;23;20296;-86
2022/05/10 11:01:56;;;;;;;5.80;1.97;;;;;;;;;;6038053;23;20186;-86
2022/05/10 11:08:06;;;;;;;3.20;2.20;;;;;;;;;;6098155;23;20238;-83
2022/05/10 11:11:17;;;;;;;1.77;1.67;;;;;;;;;;6098538;23;20182;-87
2022/05/10 11:18:58;;;;;;;;;;;;;;;;;;;;;
2022/05/10 11:27:13;;;;;;;3.33;2.10;;;;;;;;;;5764246;24;20241;-87
2022/05/10 11:40:31;;;;;;;0.70;0.70;;;;;;;;;;5749206;24;20173;-87
2022/05/10 11:43:56;;;;;;;2.33;1.17;;;;;;;;;;5750509;24;20186;-87
2022/05/10 11:54:42;;;;;;;1.10;1.00;;;;;;;;;;5766818;24;20193;-86
2022/05/10 11:57:44;;;;;;;3.07;1.50;;;;;;;;;;5947719;24;20234;-86
2022/05/10 12:07:45;;;;;;;2.83;1.50;;;;;;;;;;6062097;23;20222;-87
2022/05/10 12:10:37;;;;;;;2.63;1.60;;;;;;;;;;6038582;23;20203;-86
2022/05/10 12:30:57;;;;;;;4.17;2.20;;;;;;;;;;5998433;23;20186;-86
2022/05/10 12:33:57;;;;;;;3.83;1.73;;;;;;;;;;5984423;23;20181;-86
2022/05/10 12:37:26;;;;;;;2.53;1.57;;;;;;;;;;5994050;23;20229;-86
2022/05/10 12:43:14;;;;;;;1.30;1.20;;;;;;;;;;5971413;23;20209;-87
2022/05/10 12:46:26;;;;;;;4.03;2.43;;;;;;;;;;5982624;23;20252;-87
2022/05/10 12:49:27;;;;;;;5.77;2.53;;;;;;;;;;5980745;23;20178;-85
2022/05/10 12:52:39;;;;;;;2.83;2.17;;;;;;;;;;5894836;24;20188;-85
2022/05/10 13:03:13;;;;;;;1.77;1.60;;;;;;;;;;5790305;24;20303;-85
2022/05/10 13:28:21;;;;;;;4.50;1.70;;;;;;;;;;5771415;24;20166;-86
2022/05/10 13:55:46;;;;;;;2.87;2.30;;;;;;;;;;5872615;24;20251;-85
2022/05/10 14:03:07;;;;;;;4.57;1.63;;;;;;;;;;5930206;24;20208;-86
2022/05/10 14:06:11;;;;;;;2.63;1.67;;;;;;;;;;6024673;23;20210;-87
2022/05/10 14:09:33;;;;;;;3.33;1.90;;;;;;;;;;6039855;23;20400;-87
2022/05/10 14:24:19;;;;;;;;;;;;;;;;;;;;;
2022/05/10 14:27:23;;;;;;;2.73;1.50;;;;;;;;;;6099896;23;20196;-87
2022/05/10 14:38:16;;;;;;;;;;;;;;;;;;;;;
2022/05/10 14:41:23;;;;;;;;;;;;;;;;;;;;;
2022/05/10 14:44:37;;;;;;;6.10;2.10;;;;;;;;;;6097379;23;20190;-84
2022/05/10 14:47:24;;;;;;;4.30;2.37;;;;;;;;;;6099595;23;20182;-85
2022/05/10 14:50:09;;;;;;;6.87;3.13;;;;;;;;;;6124851;23;20177;-85
2022/05/10 14:52:40;;;;;;;3.87;2.83;;;;;;;;;;6101016;23;20199;-85
2022/05/10 14:55:34;;;;;;;7.17;3.00;;;;;;;;;;6100390;23;20176;-85
2022/05/10 14:58:10;;;;;;;5.20;2.20;;;;;;;;;;6100944;23;20260;-85
2022/05/10 15:01:04;;;;;;;6.40;3.27;;;;;;;;;;6101513;23;20214;-85
2022/05/10 15:03:37;;;;;;;2.87;2.60;;;;;;;;;;6100761;23;20200;-85
2022/05/10 15:06:21;;;;;;;3.13;2.67;;;;;;;;;;6100992;23;20216;-85
2022/05/10 15:08:56;;;;;;;3.83;2.80;;;;;;;;;;6100396;23;20173;-84
2022/05/10 15:11:32;;;;;;;2.83;1.90;;;;;;;;;;6101304;23;20180;-85
2022/05/10 15:14:07;;;;;;;6.47;2.63;;;;;;;;;;6101609;23;20176;-85
2022/05/10 15:16:45;;;;;;;3.57;2.40;;;;;;;;;;6101669;23;20215;-86
2022/05/10 15:19:17;;;;;;;4.13;2.30;;;;;;;;;;6100812;23;20204;-84
2022/05/10 15:21:46;;;;;;;1.77;1.63;;;;;;;;;;6102365;23;20207;-84
2022/05/10 15:24:30;;;;;;;9.13;2.67;;;;;;;;;;6101649;23;20181;-84
2022/05/10 15:29:50;;;;;;;8.83;2.63;;;;;;;;;;6099210;23;20188;-85
2022/05/10 15:32:19;;;;;;;2.87;2.07;;;;;;;;;;6101828;23;20180;-84
2022/05/10 15:34:47;;;;;;;4.10;2.97;;;;;;;;;;6126724;23;20229;-85
2022/05/10 15:37:45;;;;;;;3.43;2.33;;;;;;;;;;6101965;23;20200;-84
2022/05/10 15:40:27;;;;;;;3.63;2.13;;;;;;;;;;6090800;23;20185;-85
2022/05/10 15:42:56;;;;;;;6.33;2.97;;;;;;;;;;6126929;23;20176;-85
2022/05/10 15:45:32;;;;;;;8.30;3.07;;;;;;;;;;6101835;23;20176;-85
2022/05/10 15:48:00;;;;;;;6.47;2.90;;;;;;;;;;6101846;23;20179;-85
2022/05/10 15:50:30;;;;;;;5.80;2.23;;;;;;;;;;6127052;23;20183;-85
2022/05/10 15:52:58;;;;;;;5.37;3.87;;;;;;;;;;6101786;23;20232;-85
2022/05/10 15:55:27;;;;;;;3.57;3.03;;;;;;;;;;6101466;23;20190;-85
2022/05/10 15:57:57;;;;;;;4.10;2.97;;;;;;;;;;6101626;23;20224;-85
2022/05/10 16:00:26;;;;;;;6.07;2.93;;;;;;;;;;6101575;23;20176;-85
2022/05/10 16:02:57;;;;;;;4.73;3.27;;;;;;;;;;6101103;23;20184;-85
2022/05/10 16:05:26;;;;;;;6.70;3.07;;;;;;;;;;6106572;23;20208;-85
2022/05/10 16:07:54;;;;;;;9.93;4.27;;;;;;;;;;6125645;23;20173;-85
2022/05/10 16:10:23;;;;;;;3.97;2.97;;;;;;;;;;6125498;23;20180;-85
2022/05/10 16:12:51;;;;;;;4.83;4.10;;;;;;;;;;6125620;23;20177;-85
2022/05/10 16:15:19;;;;;;;1.53;1.43;;;;;;;;;;6125687;23;20180;-85
2022/05/10 16:17:48;;;;;;;9.47;2.87;;;;;;;;;;6125519;23;20211;-85
2022/05/10 16:20:24;;;;;;;2.97;1.40;;;;;;;;;;6126897;23;20176;-85
2022/05/10 16:22:53;;;;;;;2.27;2.03;;;;;;;;;;6125450;23;20183;-85
2022/05/10 16:25:21;;;;;;;5.27;2.23;;;;;;;;;;6125447;23;20186;-84
2022/05/10 16:30:36;;;;;;;2.27;1.83;;;;;;;;;;6125820;23;20276;-84
2022/05/10 16:33:06;;;;;;;7.43;3.97;;;;;;;;;;6125467;23;20255;-85
2022/05/10 16:35:39;;;;;;;3.73;2.57;;;;;;;;;;6125247;23;20181;-85
2022/05/10 16:38:08;;;;;;;3.47;2.60;;;;;;;;;;6125402;23;20205;-84
2022/05/10 16:40:36;;;;;;;4.70;2.77;;;;;;;;;;6125581;23;20183;-85
2022/05/10 16:43:05;;;;;;;5.83;3.63;;;;;;;;;;6125254;23;20248;-85
2022/05/10 16:45:34;;;;;;;6.03;2.40;;;;;;;;;;6124912;23;20267;-85
2022/05/10 16:48:02;;;;;;;9.37;4.37;;;;;;;;;;6126504;23;20176;-84
2022/05/10 16:50:31;;;;;;;2.23;1.83;;;;;;;;;;6125240;23;20177;-84
2022/05/10 16:53:05;;;;;;;3.83;3.43;;;;;;;;;;6125205;23;20194;-85
2022/05/10 16:55:35;;;;;;;2.07;1.97;;;;;;;;;;6125536;23;20200;-85
2022/05/10 16:58:07;;;;;;;7.47;2.63;;;;;;;;;;6125456;23;20230;-85
2022/05/10 17:00:36;;;;;;;6.10;3.20;;;;;;;;;;6125162;23;20208;-85
2022/05/10 17:03:04;;;;;;;5.63;2.60;;;;;;;;;;6124745;23;20283;-85
2022/05/10 17:05:33;;;;;;;10.50;3.63;;;;;;;;;;6126115;23;20218;-85
2022/05/10 17:08:07;;;;;;;3.50;1.90;;;;;;;;;;6101078;23;20177;-85
2022/05/10 17:10:36;;;;;;;11.13;3.40;;;;;;;;;;6100792;23;20178;-85
2022/05/10 17:13:04;;;;;;;7.30;3.47;;;;;;;;;;6100475;23;20188;-85
2022/05/10 17:15:32;;;;;;;6.40;2.77;;;;;;;;;;6126639;23;20179;-85
2022/05/10 17:18:01;;;;;;;5.90;1.87;;;;;;;;;;6100853;23;20192;-85
2022/05/10 17:20:29;;;;;;;4.37;2.93;;;;;;;;;;6100871;23;20202;-85
2022/05/10 17:22:58;;;;;;;5.57;3.60;;;;;;;;;;6100676;23;20184;-85
2022/05/10 17:25:31;;;;;;;5.37;2.87;;;;;;;;;;6126537;23;20227;-85
2022/05/10 17:30:51;;;;;;;5.83;2.93;;;;;;;;;;6085693;23;20177;-83
2022/05/10 17:33:20;;;;;;;5.10;2.83;;;;;;;;;;6100423;23;20178;-85
2022/05/10 17:35:49;;;;;;;4.30;2.40;;;;;;;;;;6100852;23;20189;-85
2022/05/10 17:38:19;;;;;;;6.17;4.20;;;;;;;;;;6100222;23;20183;-85
2022/05/10 17:40:49;;;;;;;4.47;2.57;;;;;;;;;;6100797;23;20183;-85
2022/05/10 17:43:17;;;;;;;1.73;1.40;;;;;;;;;;6100622;23;20176;-85
2022/05/10 17:45:46;;;;;;;6.17;4.00;;;;;;;;;;6100318;23;20183;-85
2022/05/10 17:48:14;;;;;;;11.23;4.27;;;;;;;;;;6100129;23;20176;-85
2022/05/10 17:50:43;;;;;;;5.03;3.40;;;;;;;;;;6100761;23;20181;-85
2022/05/10 17:53:11;;;;;;;2.63;2.43;;;;;;;;;;6100419;23;20207;-85
2022/05/10 17:55:40;;;;;;;3.83;2.90;;;;;;;;;;6126407;23;20196;-85
2022/05/10 17:58:12;;;;;;;1.77;1.53;;;;;;;;;;6100499;23;20187;-85
2022/05/10 18:00:43;;;;;;;4.63;3.60;;;;;;;;;;6100422;23;20211;-84
2022/05/10 18:03:12;;;;;;;4.57;2.43;;;;;;;;;;6125754;23;20231;-85
2022/05/10 18:05:40;;;;;;;6.30;3.43;;;;;;;;;;6125964;23;20233;-85
2022/05/10 18:08:09;;;;;;;3.07;2.07;;;;;;;;;;6100464;23;20182;-85
2022/05/10 18:10:37;;;;;;;1.43;1.33;;;;;;;;;;6100670;23;20176;-84
2022/05/10 18:13:07;;;;;;;4.80;2.80;;;;;;;;;;6100071;23;20183;-85
2022/05/10 18:15:37;;;;;;;6.87;1.77;;;;;;;;;;6100454;23;20187;-84
2022/05/10 18:18:05;;;;;;;3.30;2.77;;;;;;;;;;6100285;23;20181;-84
2022/05/10 18:20:34;;;;;;;1.00;0.93;;;;;;;;;;6100693;23;20192;-86
2022/05/10 18:23:04;;;;;;;5.37;2.03;;;;;;;;;;6125972;23;20207;-86
2022/05/10 18:25:33;;;;;;;4.10;2.57;;;;;;;;;;6100372;23;20187;-85
2022/05/10 18:28:01;;;;;;;2.40;1.60;;;;;;;;;;6125545;23;20178;-86
2022/05/10 18:30:29;;;;;;;2.17;1.57;;;;;;;;;;6099329;23;20179;-85
2022/05/10 18:33:00;;;;;;;6.77;2.57;;;;;;;;;;6100531;23;20184;-86
2022/05/10 18:35:29;;;;;;;5.40;2.60;;;;;;;;;;6099700;23;20176;-86
2022/05/10 18:37:57;;;;;;;5.77;2.47;;;;;;;;;;6125804;23;20176;-86
2022/05/10 18:40:26;;;;;;;4.00;2.73;;;;;;;;;;6099999;23;20210;-86
2022/05/10 18:42:54;;;;;;;5.53;1.87;;;;;;;;;;6125594;23;20181;-85
2022/05/10 18:45:25;;;;;;;9.73;2.93;;;;;;;;;;6126232;23;20283;-85
2022/05/10 18:47:55;;;;;;;4.73;1.90;;;;;;;;;;6099899;23;20188;-85
2022/05/10 18:50:26;;;;;;;1.63;1.53;;;;;;;;;;6100437;23;20183;-85
2022/05/10 18:52:56;;;;;;;5.63;2.90;;;;;;;;;;6100372;23;20181;-86
2022/05/10 18:55:30;;;;;;;5.23;2.27;;;;;;;;;;6100468;23;20214;-86
2022/05/10 18:57:58;;;;;;;3.60;2.10;;;;;;;;;;6125424;23;20240;-86
2022/05/10 19:00:29;;;;;;;1.97;1.80;;;;;;;;;;6125927;23;20197;-86
2022/05/10 19:02:58;;;;;;;11.73;3.57;;;;;;;;;;6099972;23;20268;-85
2022/05/10 19:05:30;;;;;;;3.00;1.77;;;;;;;;;;6125230;23;20299;-85
2022/05/10 19:07:59;;;;;;;10.53;4.00;;;;;;;;;;6123362;23;20259;-85
2022/05/10 19:10:27;;;;;;;5.13;3.13;;;;;;;;;;6125803;23;20180;-85
2022/05/10 19:12:56;;;;;;;6.60;4.07;;;;;;;;;;6125993;23;20180;-85
2022/05/10 19:15:26;;;;;;;2.73;1.60;;;;;;;;;;6126917;23;20190;-85
2022/05/10 19:17:54;;;;;;;1.83;1.73;;;;;;;;;;6126303;23;20187;-85
2022/05/10 19:20:23;;;;;;;4.97;3.03;;;;;;;;;;6126002;23;20199;-85
2022/05/10 19:22:53;;;;;;;5.17;2.67;;;;;;;;;;6126289;23;20173;-85
2022/05/10 19:25:23;;;;;;;2.20;1.70;;;;;;;;;;6127338;23;20184;-85
2022/05/10 19:27:51;;;;;;;4.67;2.13;;;;;;;;;;6125659;23;20181;-85
2022/05/10 19:30:22;;;;;;;8.23;1.77;;;;;;;;;;6127351;23;20176;-85
2022/05/10 19:32:52;;;;;;;5.63;2.03;;;;;;;;;;6126729;23;20191;-85
2022/05/10 19:35:21;;;;;;;3.97;2.33;;;;;;;;;;6126460;23;20187;-85
2022/05/10 19:37:50;;;;;;;7.70;4.00;;;;;;;;;;6127116;23;20176;-83
2022/05/10 19:40:19;;;;;;;4.00;1.80;;;;;;;;;;6125903;23;20266;-83
2022/05/10 19:42:48;;;;;;;1.50;1.40;;;;;;;;;;6125661;23;20190;-83
2022/05/10 19:45:17;;;;;;;1.00;1.00;;;;;;;;;;6127235;23;20180;-83
2022/05/10 19:47:47;;;;;;;5.23;2.63;;;;;;;;;;6126253;23;20176;-83
2022/05/10 19:50:16;;;;;;;2.20;1.17;;;;;;;;;;6127510;23;20227;-83
2022/05/10 19:52:45;;;;;;;4.47;2.43;;;;;;;;;;6125971;23;20266;-83
2022/05/10 19:55:14;;;;;;;4.50;2.73;;;;;;;;;;6125835;23;20184;-84
2022/05/10 19:57:45;;;;;;;3.67;2.83;;;;;;;;;;6126118;23;20177;-84
2022/05/10 20:00:21;;;;;;;1.13;1.13;;;;;;;;;;6126866;23;20249;-84
2022/05/10 20:05:37;;;;;;;1.23;1.20;;;;;;;;;;6069418;23;20183;-84
2022/05/10 20:08:06;;;;;;;9.80;5.17;;;;;;;;;;6125545;23;20215;-84
2022/05/10 20:10:37;;;;;;;15.47;5.43;;;;;;;;;;6125826;23;20182;-84
2022/05/10 20:13:07;;;;;;;8.60;5.47;;;;;;;;;;6125679;23;20184;-84
2022/05/10 20:15:36;;;;;;;8.57;3.90;;;;;;;;;;6126973;23;20179;-84
2022/05/10 20:18:07;;;;;;;2.30;1.60;;;;;;;;;;6127068;23;20253;-84
2022/05/10 20:20:38;;;;;;;3.80;2.90;;;;;;;;;;6126821;23;20192;-84
2022/05/10 20:23:08;;;;;;;8.80;4.77;;;;;;;;;;6124272;23;20211;-84
2022/05/10 20:25:41;;;;;;;15.53;2.70;;;;;;;;;;6125548;23;20179;-84
2022/05/10 20:28:12;;;;;;;1.93;1.77;;;;;;;;;;6126958;23;20179;-84
2022/05/10 20:30:40;;;;;;;7.57;4.40;;;;;;;;;;6125407;23;20186;-85
2022/05/10 20:33:10;;;;;;;14.80;3.83;;;;;;;;;;6125591;23;20200;-85
2022/05/10 20:35:38;;;;;;;2.03;1.93;;;;;;;;;;6125507;23;20180;-84
2022/05/10 20:38:11;;;;;;;3.77;1.77;;;;;;;;;;6125747;23;20184;-85
2022/05/10 20:40:40;;;;;;;4.93;2.93;;;;;;;;;;6125077;23;20195;-84
2022/05/10 20:43:12;;;;;;;4.67;2.43;;;;;;;;;;6127111;23;20199;-85
2022/05/10 20:45:43;;;;;;;10.27;4.17;;;;;;;;;;6125548;23;20218;-84
2022/05/10 20:48:12;;;;;;;7.50;2.57;;;;;;;;;;6125368;23;20179;-85
2022/05/10 20:50:42;;;;;;;3.83;2.23;;;;;;;;;;6125719;23;20255;-84
2022/05/10 20:53:11;;;;;;;6.63;2.77;;;;;;;;;;6126957;23;20254;-84
2022/05/10 20:55:40;;;;;;;1.47;1.37;;;;;;;;;;6125390;23;20191;-84
2022/05/10 20:58:09;;;;;;;3.93;1.43;;;;;;;;;;6125498;23;20226;-84
2022/05/10 21:00:40;;;;;;;1.83;1.47;;;;;;;;;;6124807;23;20199;-84
2022/05/10 21:03:10;;;;;;;6.77;4.10;;;;;;;;;;6126401;23;20179;-84
2022/05/10 21:05:39;;;;;;;3.87;2.13;;;;;;;;;;6125192;23;20186;-84
2022/05/10 21:10:53;;;;;;;4.43;2.63;;;;;;;;;;6125124;23;20175;-84
2022/05/10 21:13:22;;;;;;;3.10;1.90;;;;;;;;;;6125470;23;20192;-84
2022/05/10 21:15:50;;;;;;;1.33;1.27;;;;;;;;;;6124859;23;20211;-84
2022/05/10 21:18:23;;;;;;;2.43;1.93;;;;;;;;;;6125375;23;20188;-84
2022/05/10 21:20:52;;;;;;;5.77;3.23;;;;;;;;;;6125100;23;20208;-84
2022/05/10 21:23:22;;;;;;;3.73;1.77;;;;;;;;;;6126277;23;20167;-84
2022/05/10 21:25:51;;;;;;;2.70;2.50;;;;;;;;;;6124764;23;20238;-84
2022/05/10 21:28:22;;;;;;;4.17;2.33;;;;;;;;;;6125098;23;20184;-84
2022/05/10 21:33:38;;;;;;;3.70;1.33;;;;;;;;;;6124872;23;20178;-84
2022/05/10 21:36:07;;;;;;;2.87;2.67;;;;;;;;;;6125159;23;20214;-84
2022/05/10 21:38:35;;;;;;;12.80;7.63;;;;;;;;;;6125250;23;20194;-84
2022/05/10 21:41:05;;;;;;;2.07;1.70;;;;;;;;;;6125175;23;20191;-84
2022/05/10 21:43:33;;;;;;;2.73;1.60;;;;;;;;;;6125067;23;20278;-86
2022/05/10 21:46:06;;;;;;;2.23;2.10;;;;;;;;;;6124807;23;20183;-85
2022/05/10 21:48:34;;;;;;;3.67;2.03;;;;;;;;;;6124688;23;20180;-85